Time;durP1;ratioP1;P1;durP2;ratioP2;P2;SDS_P1;SDS_P2;PMS_P1;PMS_P2;Temp;Humidity;BMP_temperature;BMP_pressure;BME280_temperature;BME280_humidity;BME280_pressure;Samples;Min_cycle;Max_cycle;Signal;HPM_P1;HPM_P2
2022/06/27 00:01:12;;;;;;;8.15;6.70;;;19.70;99.90;;;;;;5036635;28;20489;-73
2022/06/27 00:03:38;;;;;;;8.52;7.10;;;19.70;99.90;;;;;;5040348;28;20544;-73
2022/06/27 00:06:04;;;;;;;8.10;6.43;;;19.70;99.90;;;;;;5044612;28;20037;-73
2022/06/27 00:08:30;;;;;;;13.32;6.63;;;19.70;99.90;;;;;;5040074;28;20021;-73
2022/06/27 00:10:55;;;;;;;11.68;6.47;;;19.60;99.90;;;;;;5043243;28;20025;-73
2022/06/27 00:13:21;;;;;;;8.88;7.50;;;19.60;99.90;;;;;;5041944;28;20018;-73
2022/06/27 00:15:47;;;;;;;11.80;6.85;;;19.70;99.90;;;;;;5042301;28;20030;-73
2022/06/27 00:18:13;;;;;;;9.85;6.97;;;19.70;99.90;;;;;;5044782;28;20025;-73
2022/06/27 00:20:38;;;;;;;11.35;7.40;;;19.80;99.90;;;;;;5045419;28;20428;-73
2022/06/27 00:23:04;;;;;;;10.25;7.85;;;19.80;99.90;;;;;;5047507;28;20526;-73
2022/06/27 00:25:30;;;;;;;10.13;8.40;;;19.80;99.90;;;;;;5046038;28;20021;-73
2022/06/27 00:27:55;;;;;;;9.82;6.50;;;19.60;99.90;;;;;;5047303;28;20064;-73
2022/06/27 00:30:21;;;;;;;9.82;8.02;;;19.60;99.90;;;;;;5045383;28;20466;-73
2022/06/27 00:32:48;;;;;;;10.65;6.30;;;19.50;99.90;;;;;;5046455;28;20461;-73
2022/06/27 00:35:14;;;;;;;9.18;6.50;;;19.50;99.90;;;;;;5050125;28;20017;-73
2022/06/27 00:37:40;;;;;;;9.00;5.85;;;19.60;99.90;;;;;;5049208;28;20461;-73
2022/06/27 00:40:06;;;;;;;7.15;6.38;;;19.60;99.90;;;;;;5045837;28;20040;-73
2022/06/27 00:42:32;;;;;;;9.80;7.68;;;19.60;99.90;;;;;;5045639;28;20103;-73
2022/06/27 00:44:58;;;;;;;8.48;6.25;;;19.60;99.90;;;;;;5045761;28;20469;-73
2022/06/27 00:47:24;;;;;;;14.98;6.18;;;19.60;99.90;;;;;;5045299;28;20029;-73
2022/06/27 00:49:50;;;;;;;6.80;5.95;;;19.50;99.90;;;;;;5044104;28;20381;-73
2022/06/27 00:52:16;;;;;;;6.60;5.78;;;19.40;99.90;;;;;;5045297;28;20111;-73
2022/06/27 00:54:43;;;;;;;6.55;5.57;;;19.40;99.90;;;;;;5043715;28;20018;-73
2022/06/27 00:57:12;;;;;;;8.07;5.32;;;19.40;99.90;;;;;;5044622;28;20048;-73
2022/06/27 00:59:38;;;;;;;8.20;6.07;;;19.50;99.90;;;;;;5047124;28;20037;-72
2022/06/27 01:02:04;;;;;;;9.95;6.68;;;19.60;99.90;;;;;;5047849;28;20029;-73
2022/06/27 01:04:30;;;;;;;10.07;7.40;;;19.50;99.90;;;;;;5050203;28;20032;-72
2022/06/27 01:06:56;;;;;;;15.60;6.93;;;19.60;99.90;;;;;;5045211;28;20029;-73
2022/06/27 01:09:23;;;;;;;9.45;7.15;;;19.60;99.90;;;;;;5047657;28;20017;-73
2022/06/27 01:11:50;;;;;;;11.10;8.15;;;19.60;99.90;;;;;;5045423;28;20029;-73
2022/06/27 01:14:16;;;;;;;8.30;7.50;;;19.60;99.90;;;;;;5048413;28;20029;-71
2022/06/27 01:16:42;;;;;;;10.80;8.18;;;19.60;99.90;;;;;;5047664;28;20113;-72
2022/06/27 01:19:11;;;;;;;11.10;7.50;;;19.60;99.90;;;;;;5043714;28;20025;-72
2022/06/27 01:21:43;;;;;;;10.70;6.05;;;19.60;99.90;;;;;;5045265;28;20108;-72
2022/06/27 01:24:09;;;;;;;9.10;7.28;;;19.60;99.90;;;;;;5044156;28;20104;-73
2022/06/27 01:26:35;;;;;;;12.05;9.88;;;19.60;99.90;;;;;;5043547;28;20029;-73
2022/06/27 01:29:02;;;;;;;12.02;10.75;;;19.60;99.90;;;;;;5044924;28;20075;-73
2022/06/27 01:31:27;;;;;;;13.52;10.27;;;19.50;99.90;;;;;;5042361;28;20029;-73
2022/06/27 01:33:53;;;;;;;15.10;11.13;;;19.60;99.90;;;;;;5042797;28;20416;-73
2022/06/27 01:39:04;;;;;;;16.05;10.90;;;19.50;99.90;;;;;;5043163;28;20067;-73
2022/06/27 01:41:30;;;;;;;13.32;10.65;;;19.50;99.90;;;;;;5043238;28;20043;-73
2022/06/27 01:43:55;;;;;;;15.23;12.23;;;19.50;99.90;;;;;;5045145;28;20750;-73
2022/06/27 01:46:21;;;;;;;17.27;11.52;;;19.50;99.90;;;;;;5049325;28;20524;-73
2022/06/27 01:48:47;;;;;;;15.90;11.88;;;19.50;99.90;;;;;;5048169;28;20025;-73
2022/06/27 01:51:13;;;;;;;13.10;11.75;;;19.50;99.90;;;;;;5044018;28;20477;-73
2022/06/27 01:53:39;;;;;;;15.52;12.38;;;19.50;99.90;;;;;;5042720;28;20033;-73
2022/06/27 01:56:05;;;;;;;15.25;13.57;;;19.60;99.90;;;;;;5055166;28;20036;-73
2022/06/27 01:58:31;;;;;;;20.35;13.18;;;19.60;99.90;;;;;;5053395;28;20029;-73
2022/06/27 02:00:57;;;;;;;13.07;10.85;;;19.60;99.90;;;;;;5054024;28;20056;-73
2022/06/27 02:03:24;;;;;;;18.55;12.20;;;19.60;99.90;;;;;;5054881;28;20016;-73
2022/06/27 02:05:52;;;;;;;14.82;11.98;;;19.50;99.90;;;;;;5053472;28;20048;-73
2022/06/27 02:08:21;;;;;;;14.65;12.55;;;19.50;99.90;;;;;;5047180;28;20043;-73
2022/06/27 02:10:47;;;;;;;13.00;10.80;;;19.60;99.90;;;;;;5034858;28;20037;-73
2022/06/27 02:13:13;;;;;;;20.38;14.32;;;19.50;99.90;;;;;;5034660;28;20506;-73
2022/06/27 02:16:03;;;;;;;17.25;14.57;;;19.40;99.90;;;;;;5034469;28;20079;-73
2022/06/27 02:18:29;;;;;;;16.65;12.85;;;19.50;99.90;;;;;;5048764;28;20122;-73
2022/06/27 02:20:56;;;;;;;14.32;12.70;;;19.50;99.90;;;;;;5053943;28;20032;-73
2022/06/27 02:23:21;;;;;;;17.30;14.00;;;19.50;99.90;;;;;;5052089;28;20470;-73
2022/06/27 02:25:48;;;;;;;16.75;13.25;;;19.50;99.90;;;;;;5054508;28;20083;-73
2022/06/27 02:28:16;;;;;;;19.27;12.30;;;19.50;99.90;;;;;;5054512;28;20029;-73
2022/06/27 02:30:41;;;;;;;15.50;12.65;;;19.50;99.90;;;;;;5068656;28;20016;-73
2022/06/27 02:33:07;;;;;;;16.10;14.07;;;19.50;99.90;;;;;;5074144;28;20040;-73
2022/06/27 02:35:33;;;;;;;13.50;12.05;;;19.40;99.90;;;;;;5073928;28;20513;-73
2022/06/27 02:38:00;;;;;;;17.45;12.23;;;19.40;99.90;;;;;;5049729;28;20052;-73
2022/06/27 02:40:29;;;;;;;21.42;13.82;;;19.40;99.90;;;;;;5053900;28;20017;-73
2022/06/27 02:42:58;;;;;;;20.05;14.80;;;19.20;99.90;;;;;;5049978;28;20041;-73
2022/06/27 02:45:29;;;;;;;16.63;12.52;;;19.20;99.90;;;;;;5044871;28;20044;-73
2022/06/27 02:47:58;;;;;;;19.10;13.07;;;19.30;99.90;;;;;;5048521;28;20025;-73
2022/06/27 02:50:26;;;;;;;20.45;14.35;;;19.30;99.90;;;;;;5032513;28;20026;-73
2022/06/27 02:52:56;;;;;;;18.73;13.10;;;19.30;99.90;;;;;;5034190;28;20021;-73
2022/06/27 02:55:28;;;;;;;18.33;13.88;;;19.30;99.90;;;;;;5033875;28;20029;-73
2022/06/27 02:58:04;;;;;;;17.67;15.23;;;19.30;99.90;;;;;;5033739;28;20021;-72
2022/06/27 03:00:32;;;;;;;19.98;15.15;;;19.20;99.90;;;;;;5033544;28;20096;-73
2022/06/27 03:02:59;;;;;;;19.95;14.95;;;19.20;99.90;;;;;;5033506;28;20017;-73
2022/06/27 03:05:25;;;;;;;16.42;13.07;;;19.30;99.90;;;;;;5033957;28;20092;-73
2022/06/27 03:07:51;;;;;;;19.75;14.15;;;19.30;99.90;;;;;;5033378;28;20132;-73
2022/06/27 03:10:16;;;;;;;19.08;15.38;;;19.30;99.90;;;;;;5033729;28;20061;-73
2022/06/27 03:12:42;;;;;;;23.38;14.88;;;19.30;99.90;;;;;;5033766;28;20029;-72
2022/06/27 03:15:09;;;;;;;17.55;15.52;;;19.30;99.90;;;;;;5051949;28;20060;-73
2022/06/27 03:17:35;;;;;;;20.02;16.45;;;19.30;99.90;;;;;;5069635;28;20358;-73
2022/06/27 03:20:00;;;;;;;19.90;15.18;;;19.30;99.90;;;;;;5034249;28;20086;-73
2022/06/27 03:22:26;;;;;;;19.27;15.68;;;19.30;99.90;;;;;;5032720;28;20021;-73
2022/06/27 03:24:52;;;;;;;17.85;13.40;;;19.20;99.90;;;;;;5033581;28;20466;-73
2022/06/27 03:27:17;;;;;;;15.65;13.75;;;19.20;99.90;;;;;;5033335;28;20482;-73
2022/06/27 03:29:43;;;;;;;17.15;14.88;;;19.20;99.90;;;;;;5033586;28;20470;-73
2022/06/27 03:32:09;;;;;;;21.35;15.52;;;19.20;99.90;;;;;;5032954;28;20418;-72
2022/06/27 03:34:34;;;;;;;22.63;15.75;;;19.20;99.90;;;;;;5053040;28;20025;-73
2022/06/27 03:37:00;;;;;;;17.88;15.98;;;19.20;99.90;;;;;;5051827;28;20043;-73
2022/06/27 03:39:26;;;;;;;21.63;14.77;;;19.20;99.90;;;;;;5053309;28;20017;-73
2022/06/27 03:41:52;;;;;;;20.83;14.57;;;19.20;99.90;;;;;;5052922;28;20029;-73
2022/06/27 03:44:17;;;;;;;22.08;15.38;;;19.20;99.90;;;;;;5052744;28;20104;-72
2022/06/27 03:46:43;;;;;;;21.65;14.80;;;19.10;99.90;;;;;;5051683;28;20037;-72
2022/06/27 03:51:54;;;;;;;20.58;15.75;;;19.10;99.90;;;;;;5033487;28;20037;-73
2022/06/27 03:54:20;;;;;;;23.75;16.23;;;19.10;99.90;;;;;;5031492;28;20018;-73
2022/06/27 03:56:46;;;;;;;20.25;16.55;;;19.10;99.90;;;;;;5033132;28;20029;-73
2022/06/27 03:59:13;;;;;;;17.90;15.43;;;19.00;99.90;;;;;;5045629;28;20506;-73
2022/06/27 04:01:39;;;;;;;17.65;15.73;;;19.00;99.90;;;;;;5052677;28;20029;-73
2022/06/27 04:04:05;;;;;;;20.70;16.02;;;19.00;99.90;;;;;;5052551;28;20028;-72
2022/06/27 04:06:32;;;;;;;21.38;16.50;;;19.10;99.90;;;;;;5051705;28;20052;-73
2022/06/27 04:08:58;;;;;;;20.13;15.70;;;19.00;99.90;;;;;;5045366;28;20022;-72
2022/06/27 04:11:23;;;;;;;21.33;16.45;;;19.00;99.90;;;;;;5037498;28;20096;-72
2022/06/27 04:13:49;;;;;;;17.17;14.90;;;19.00;99.90;;;;;;5051431;28;20104;-73
2022/06/27 04:16:15;;;;;;;24.90;16.15;;;19.00;99.90;;;;;;5052340;28;20033;-71
2022/06/27 04:18:40;;;;;;;18.13;15.45;;;18.90;99.90;;;;;;5045161;28;20421;-73
2022/06/27 04:21:06;;;;;;;18.08;14.90;;;18.90;99.90;;;;;;5032318;28;20061;-73
2022/06/27 04:23:32;;;;;;;18.92;15.02;;;19.00;99.90;;;;;;5031991;28;20028;-73
2022/06/27 04:25:58;;;;;;;17.70;15.15;;;19.00;99.90;;;;;;5061590;28;20036;-73
2022/06/27 04:28:24;;;;;;;18.40;14.70;;;19.00;99.90;;;;;;5053429;28;20025;-72
2022/06/27 04:30:49;;;;;;;18.23;13.98;;;19.10;99.90;;;;;;5032569;28;20029;-72
2022/06/27 04:33:15;;;;;;;16.38;13.38;;;19.10;99.90;;;;;;5031670;28;20021;-73
2022/06/27 04:35:42;;;;;;;18.85;15.02;;;18.90;99.90;;;;;;5031567;28;20463;-73
2022/06/27 04:38:08;;;;;;;22.42;15.63;;;18.90;99.90;;;;;;5032610;28;20021;-73
2022/06/27 04:40:34;;;;;;;18.80;13.95;;;18.80;99.90;;;;;;5032758;28;20442;-73
2022/06/27 04:42:59;;;;;;;21.67;14.10;;;18.90;99.90;;;;;;5032394;28;20108;-72
2022/06/27 04:45:27;;;;;;;15.48;13.98;;;19.00;99.90;;;;;;5043205;28;20120;-73
2022/06/27 04:47:53;;;;;;;17.48;13.32;;;19.10;99.90;;;;;;5052048;28;20029;-72
2022/06/27 04:50:21;;;;;;;16.42;14.55;;;19.10;99.90;;;;;;5051312;28;20025;-73
2022/06/27 04:52:49;;;;;;;16.45;12.95;;;19.10;99.90;;;;;;5052478;28;20025;-73
2022/06/27 04:55:15;;;;;;;19.52;14.95;;;19.10;99.90;;;;;;5052526;28;20079;-73
2022/06/27 04:57:43;;;;;;;19.75;16.67;;;19.00;99.90;;;;;;5049627;28;20036;-73
2022/06/27 05:00:11;;;;;;;21.67;15.27;;;18.90;99.90;;;;;;5046417;28;20021;-72
2022/06/27 05:02:37;;;;;;;14.95;12.60;;;18.80;99.90;;;;;;5040051;28;20517;-72
2022/06/27 05:05:04;;;;;;;18.90;12.65;;;18.70;99.90;;;;;;5034649;28;20025;-73
2022/06/27 05:07:30;;;;;;;18.65;14.68;;;18.70;99.90;;;;;;5035794;28;20033;-72
2022/06/27 05:09:57;;;;;;;15.32;12.90;;;18.70;99.90;;;;;;5054901;28;20367;-72
2022/06/27 05:12:24;;;;;;;15.95;11.70;;;18.80;99.90;;;;;;5055601;28;20032;-73
2022/06/27 05:14:51;;;;;;;20.92;13.35;;;18.90;99.90;;;;;;5067933;28;20050;-72
2022/06/27 05:17:17;;;;;;;22.23;14.38;;;19.00;99.90;;;;;;5075965;28;20032;-73
2022/06/27 05:19:44;;;;;;;17.75;15.88;;;19.00;99.90;;;;;;5045916;28;20033;-73
2022/06/27 05:22:10;;;;;;;22.00;16.63;;;19.00;99.90;;;;;;5035744;28;20095;-73
2022/06/27 05:24:36;;;;;;;20.27;15.27;;;19.10;99.90;;;;;;5045465;28;20366;-73
2022/06/27 05:27:02;;;;;;;16.65;13.52;;;19.00;99.90;;;;;;5055398;28;20124;-73
2022/06/27 05:29:28;;;;;;;18.00;14.68;;;19.00;99.90;;;;;;5055275;28;20088;-72
2022/06/27 05:31:54;;;;;;;18.63;16.48;;;19.10;99.90;;;;;;5055718;28;20389;-73
2022/06/27 05:34:21;;;;;;;23.02;17.75;;;19.10;99.90;;;;;;5055078;28;20028;-73
2022/06/27 05:36:47;;;;;;;19.92;16.65;;;19.10;99.90;;;;;;5055271;28;20040;-73
2022/06/27 05:39:13;;;;;;;16.98;13.70;;;19.10;99.90;;;;;;5046714;28;20026;-73
2022/06/27 05:41:40;;;;;;;20.17;16.60;;;19.20;99.90;;;;;;5075545;28;20017;-73
2022/06/27 05:44:06;;;;;;;18.70;15.98;;;19.20;99.90;;;;;;5074957;28;20492;-73
2022/06/27 05:46:32;;;;;;;20.05;17.15;;;19.30;99.90;;;;;;5055133;28;20029;-73
2022/06/27 05:49:00;;;;;;;19.70;15.77;;;19.30;99.90;;;;;;5047031;28;20394;-73
2022/06/27 05:51:27;;;;;;;23.60;18.38;;;19.30;99.90;;;;;;5035287;28;20030;-73
2022/06/27 05:53:52;;;;;;;20.02;16.15;;;19.30;99.90;;;;;;5035048;28;20029;-73
2022/06/27 05:56:18;;;;;;;23.33;18.65;;;19.30;99.90;;;;;;5035315;28;20070;-72
2022/06/27 05:58:44;;;;;;;21.52;17.58;;;19.30;99.90;;;;;;5034388;28;20029;-73
2022/06/27 06:01:10;;;;;;;22.35;17.85;;;19.30;99.90;;;;;;5058470;28;20025;-73
2022/06/27 06:03:37;;;;;;;21.05;18.77;;;19.30;99.90;;;;;;5034405;28;20034;-74
2022/06/27 06:06:04;;;;;;;20.80;17.48;;;19.40;99.90;;;;;;5034675;28;20124;-73
2022/06/27 06:08:31;;;;;;;20.92;17.73;;;19.40;99.90;;;;;;5034831;28;20082;-73
2022/06/27 06:10:57;;;;;;;23.83;18.33;;;19.30;99.90;;;;;;5034778;28;20021;-73
2022/06/27 06:13:24;;;;;;;22.42;16.98;;;19.00;99.90;;;;;;5034148;28;20421;-74
2022/06/27 06:15:51;;;;;;;24.02;18.75;;;19.20;99.90;;;;;;5047245;28;20026;-73
2022/06/27 06:18:17;;;;;;;21.65;17.75;;;19.20;99.90;;;;;;5054545;28;20036;-73
2022/06/27 06:20:43;;;;;;;23.98;18.00;;;19.30;99.90;;;;;;5054578;28;20362;-74
2022/06/27 06:23:09;;;;;;;22.08;17.05;;;19.40;99.90;;;;;;5054406;28;20036;-73
2022/06/27 06:25:34;;;;;;;26.65;19.92;;;19.50;99.90;;;;;;5032038;28;20036;-72
2022/06/27 06:28:02;;;;;;;20.35;17.70;;;19.50;99.90;;;;;;5033601;28;20025;-73
2022/06/27 06:30:30;;;;;;;23.92;19.05;;;19.40;99.90;;;;;;5033546;28;20071;-73
2022/06/27 06:33:02;;;;;;;23.20;20.20;;;19.40;99.90;;;;;;5033627;28;20385;-73
2022/06/27 06:35:30;;;;;;;20.63;16.13;;;19.40;99.90;;;;;;5033271;28;20017;-72
2022/06/27 06:37:56;;;;;;;21.35;16.17;;;19.30;99.90;;;;;;5033791;28;20057;-72
2022/06/27 06:40:22;;;;;;;19.85;17.20;;;19.30;99.90;;;;;;5033084;28;20072;-72
2022/06/27 06:42:48;;;;;;;22.77;17.42;;;19.40;99.90;;;;;;5032713;28;20033;-74
2022/06/27 06:45:14;;;;;;;23.35;18.67;;;19.40;99.90;;;;;;5042856;28;20084;-73
2022/06/27 06:47:48;;;;;;;21.70;18.65;;;19.40;99.90;;;;;;5045873;28;20527;-74
2022/06/27 06:50:16;;;;;;;22.88;19.15;;;19.40;99.90;;;;;;5049918;28;20484;-74
2022/06/27 06:52:42;;;;;;;25.40;20.52;;;19.50;99.90;;;;;;5047093;28;20071;-74
2022/06/27 06:55:10;;;;;;;25.80;19.52;;;19.60;99.90;;;;;;5047134;28;20032;-74
2022/06/27 06:57:38;;;;;;;24.58;20.35;;;19.70;99.90;;;;;;5050957;28;20049;-74
2022/06/27 07:00:06;;;;;;;25.27;19.92;;;19.70;99.90;;;;;;5048404;28;20036;-74
2022/06/27 07:02:32;;;;;;;26.50;20.38;;;19.60;99.90;;;;;;5047395;28;20481;-74
2022/06/27 07:04:58;;;;;;;23.70;18.17;;;19.40;99.90;;;;;;5053152;28;20128;-74
2022/06/27 07:07:25;;;;;;;22.73;16.88;;;19.40;99.90;;;;;;5051221;28;20044;-73
2022/06/27 07:09:52;;;;;;;28.60;18.25;;;19.40;99.90;;;;;;5042832;28;20447;-73
2022/06/27 07:12:18;;;;;;;24.38;17.75;;;19.60;99.90;;;;;;5048622;28;20035;-73
2022/06/27 07:14:45;;;;;;;25.75;20.08;;;19.70;99.90;;;;;;5049827;28;20102;-73
2022/06/27 07:17:11;;;;;;;25.13;19.95;;;19.80;99.90;;;;;;5050935;28;20032;-73
2022/06/27 07:19:38;;;;;;;28.27;20.30;;;19.70;99.90;;;;;;5049195;28;20115;-74
2022/06/27 07:22:06;;;;;;;24.08;19.67;;;19.60;99.90;;;;;;5050357;28;20033;-73
2022/06/27 07:24:32;;;;;;;27.00;20.15;;;19.80;99.90;;;;;;5051931;28;20025;-73
2022/06/27 07:26:59;;;;;;;26.80;19.92;;;19.90;99.90;;;;;;5049859;28;20448;-74
2022/06/27 07:29:26;;;;;;;27.27;19.75;;;19.90;99.90;;;;;;5048465;28;20025;-73
2022/06/27 07:31:53;;;;;;;23.65;19.77;;;20.10;99.90;;;;;;5044058;28;20025;-74
2022/06/27 07:34:21;;;;;;;26.40;21.02;;;20.20;99.90;;;;;;5047954;28;20659;-73
2022/06/27 07:36:48;;;;;;;26.63;19.33;;;20.20;99.90;;;;;;5050233;28;20043;-74
2022/06/27 07:39:14;;;;;;;28.85;19.83;;;20.30;99.90;;;;;;5058949;28;20029;-73
2022/06/27 07:41:40;;;;;;;31.27;21.52;;;20.40;99.90;;;;;;5046947;28;20155;-74
2022/06/27 07:44:06;;;;;;;26.92;21.00;;;20.40;99.90;;;;;;5050704;28;20108;-73
2022/06/27 07:46:34;;;;;;;26.77;21.58;;;20.40;99.90;;;;;;5056005;28;20091;-74
2022/06/27 07:49:00;;;;;;;27.35;21.10;;;20.40;99.90;;;;;;5049238;28;20029;-73
2022/06/27 07:51:26;;;;;;;30.75;20.92;;;20.40;99.90;;;;;;5054093;28;20080;-74
2022/06/27 07:53:52;;;;;;;24.27;19.98;;;20.50;99.90;;;;;;5045224;28;20018;-72
2022/06/27 07:56:22;;;;;;;24.95;21.85;;;20.50;99.90;;;;;;5056050;28;20021;-74
2022/06/27 07:58:48;;;;;;;22.52;18.25;;;20.50;99.90;;;;;;5049344;28;20032;-73
2022/06/27 08:01:15;;;;;;;23.95;18.42;;;20.50;99.90;;;;;;5050384;28;20108;-74
2022/06/27 08:03:48;;;;;;;26.83;20.02;;;20.50;99.90;;;;;;5052728;28;20029;-72
2022/06/27 08:06:21;;;;;;;26.58;18.60;;;20.60;99.90;;;;;;5052373;28;20017;-73
2022/06/27 08:08:52;;;;;;;24.13;17.55;;;20.70;99.90;;;;;;5051901;28;20032;-74
2022/06/27 08:11:24;;;;;;;24.48;17.08;;;20.60;99.90;;;;;;5047431;28;20032;-73
2022/06/27 08:13:52;;;;;;;18.85;15.07;;;20.60;99.90;;;;;;5047113;28;20028;-73
2022/06/27 08:16:20;;;;;;;21.40;15.60;;;20.60;99.90;;;;;;5050210;28;20029;-73
2022/06/27 08:18:48;;;;;;;21.08;15.52;;;20.70;99.90;;;;;;5046022;28;20602;-73
2022/06/27 08:21:20;;;;;;;19.05;14.50;;;20.70;99.90;;;;;;5044927;28;20032;-70
2022/06/27 08:23:46;;;;;;;18.00;13.80;;;20.70;99.90;;;;;;5034923;28;20166;-73
2022/06/27 08:26:12;;;;;;;20.42;14.63;;;20.70;99.90;;;;;;5029036;28;20115;-74
2022/06/27 08:28:39;;;;;;;20.10;16.13;;;20.70;99.90;;;;;;5048745;28;20044;-74
2022/06/27 08:31:07;;;;;;;19.73;15.73;;;20.70;99.90;;;;;;5053593;28;20028;-72
2022/06/27 08:33:34;;;;;;;20.73;14.32;;;20.70;99.90;;;;;;5038184;28;20087;-73
2022/06/27 08:36:01;;;;;;;16.75;12.80;;;20.70;99.90;;;;;;5061672;28;20115;-74
2022/06/27 08:38:28;;;;;;;20.98;14.00;;;20.70;99.90;;;;;;5059024;28;20394;-73
2022/06/27 08:40:55;;;;;;;18.65;13.73;;;20.80;99.90;;;;;;5060646;28;20032;-74
2022/06/27 08:43:22;;;;;;;16.75;12.73;;;20.80;99.90;;;;;;5065440;28;20465;-73
2022/06/27 08:45:49;;;;;;;17.38;12.30;;;20.80;99.90;;;;;;5062344;28;20120;-73
2022/06/27 08:48:15;;;;;;;14.93;11.55;;;20.80;99.90;;;;;;5047317;28;20025;-73
2022/06/27 08:50:42;;;;;;;15.85;12.13;;;20.70;99.90;;;;;;5053433;28;20031;-74
2022/06/27 08:53:11;;;;;;;19.25;11.95;;;20.80;99.90;;;;;;5061815;28;20110;-73
2022/06/27 08:55:37;;;;;;;13.05;11.05;;;20.80;99.90;;;;;;5059251;28;20423;-74
2022/06/27 08:58:10;;;;;;;19.23;11.85;;;20.90;99.90;;;;;;5058602;28;20018;-74
2022/06/27 09:00:45;;;;;;;20.02;16.50;;;21.00;99.90;;;;;;5064125;28;20021;-74
2022/06/27 09:03:21;;;;;;;21.88;15.68;;;21.10;99.90;;;;;;5057383;28;20372;-74
2022/06/27 09:06:01;;;;;;;20.10;15.60;;;21.10;99.90;;;;;;5055540;28;20017;-73
2022/06/27 09:08:31;;;;;;;21.23;13.55;;;21.00;99.90;;;;;;5051711;28;20029;-74
2022/06/27 09:10:58;;;;;;;19.05;14.63;;;21.00;99.90;;;;;;5056498;28;20018;-74
2022/06/27 09:13:26;;;;;;;24.33;16.35;;;21.10;99.90;;;;;;5055712;28;20032;-74
2022/06/27 09:15:57;;;;;;;19.95;14.65;;;21.20;99.90;;;;;;5052392;28;20482;-72
2022/06/27 09:18:31;;;;;;;23.02;15.40;;;21.30;99.90;;;;;;5060514;28;20470;-74
2022/06/27 09:21:09;;;;;;;15.95;13.75;;;21.40;99.90;;;;;;5047366;28;20288;-74
2022/06/27 09:23:49;;;;;;;20.45;12.95;;;21.40;99.90;;;;;;5051890;28;20035;-74
2022/06/27 09:26:22;;;;;;;18.60;12.52;;;21.40;99.90;;;;;;5069946;28;20037;-73
2022/06/27 09:29:06;;;;;;;17.75;12.02;;;21.50;99.90;;;;;;5045121;28;20026;-74
2022/06/27 09:31:40;;;;;;;19.20;14.48;;;21.40;99.90;;;;;;5064686;28;20054;-74
2022/06/27 09:34:16;;;;;;;25.52;13.85;;;21.40;99.90;;;;;;5051288;28;20033;-74
2022/06/27 09:37:00;;;;;;;16.17;13.43;;;21.50;99.90;;;;;;5045851;28;20017;-74
2022/06/27 09:39:29;;;;;;;17.80;12.00;;;21.60;99.90;;;;;;5054073;28;20020;-75
2022/06/27 09:41:56;;;;;;;14.80;11.35;;;21.70;99.90;;;;;;5059059;28;20548;-72
2022/06/27 09:44:24;;;;;;;14.70;11.32;;;21.70;99.90;;;;;;5051221;28;20066;-73
2022/06/27 09:47:06;;;;;;;17.05;11.32;;;21.90;99.90;;;;;;5047436;28;20025;-74
2022/06/27 09:49:35;;;;;;;19.65;12.43;;;22.00;99.90;;;;;;5041076;28;20052;-73
2022/06/27 09:52:15;;;;;;;17.98;12.88;;;21.90;99.90;;;;;;5045053;28;20500;-71
2022/06/27 09:54:44;;;;;;;16.83;11.20;;;21.80;99.90;;;;;;5042878;28;20014;-75
2022/06/27 09:57:12;;;;;;;14.73;10.10;;;21.70;99.90;;;;;;5050495;28;20025;-74
2022/06/27 09:59:38;;;;;;;14.38;10.02;;;21.70;99.90;;;;;;5049530;28;20098;-73
2022/06/27 10:02:05;;;;;;;16.80;10.50;;;21.70;99.90;;;;;;5054347;28;20040;-75
2022/06/27 10:04:42;;;;;;;18.52;7.63;;;21.90;99.90;;;;;;5050347;28;20485;-69
2022/06/27 10:07:09;;;;;;;10.60;8.02;;;22.00;99.90;;;;;;5057023;28;20055;-74
2022/06/27 10:09:38;;;;;;;14.52;8.23;;;22.00;99.90;;;;;;5047942;28;20025;-75
2022/06/27 10:12:25;;;;;;;14.48;10.93;;;22.00;99.90;;;;;;5046776;28;20029;-74
2022/06/27 10:15:10;;;;;;;14.32;11.85;;;22.10;99.90;;;;;;5042531;28;20029;-74
2022/06/27 10:17:36;;;;;;;14.57;10.93;;;22.10;99.90;;;;;;5049887;28;20565;-71
2022/06/27 10:20:38;;;;;;;15.50;10.60;;;22.10;99.90;;;;;;5050614;28;20025;-75
2022/06/27 10:23:03;;;;;;;16.75;11.48;;;22.20;99.90;;;;;;5060871;28;20037;-81
2022/06/27 10:25:29;;;;;;;13.63;8.45;;;22.30;99.90;;;;;;5057080;28;20552;-80
2022/06/27 10:28:10;;;;;;;18.05;12.73;;;22.20;99.90;;;;;;5053549;28;20078;-80
2022/06/27 10:30:49;;;;;;;17.85;12.63;;;22.30;99.90;;;;;;5047760;28;20029;-80
2022/06/27 10:33:26;;;;;;;17.77;11.85;;;22.40;99.90;;;;;;5056784;28;20023;-83
2022/06/27 10:35:59;;;;;;;14.77;10.32;;;22.40;99.90;;;;;;5055834;28;20021;-82
2022/06/27 10:38:31;;;;;;;9.93;8.57;;;22.50;99.90;;;;;;5057518;28;20021;-76
2022/06/27 10:41:02;;;;;;;12.98;6.88;;;22.50;99.90;;;;;;5049472;28;20028;-82
2022/06/27 10:43:40;;;;;;;8.65;5.85;;;22.40;99.90;;;;;;5054625;28;20035;-85
2022/06/27 10:46:11;;;;;;;9.10;5.95;;;22.20;99.90;;;;;;5056949;28;20051;-86
2022/06/27 10:48:42;;;;;;;6.88;4.85;;;22.30;99.90;;;;;;5057796;28;20113;-77
2022/06/27 10:51:28;;;;;;;7.57;5.50;;;22.30;99.90;;;;;;5053951;28;20097;-76
2022/06/27 10:54:06;;;;;;;8.02;5.13;;;22.20;99.90;;;;;;5058756;28;20024;-77
2022/06/27 10:56:53;;;;;;;12.70;7.00;;;22.30;99.90;;;;;;5055685;28;20044;-76
2022/06/27 10:59:19;;;;;;;10.50;6.50;;;22.20;99.90;;;;;;5047754;28;20029;-77
2022/06/27 11:01:50;;;;;;;9.52;7.70;;;22.30;99.90;;;;;;5062848;28;20393;-76
2022/06/27 11:04:34;;;;;;;11.80;6.60;;;22.30;99.90;;;;;;5052844;28;20059;-76
2022/06/27 11:07:05;;;;;;;10.27;7.07;;;22.40;99.90;;;;;;5046590;28;20026;-76
2022/06/27 11:09:35;;;;;;;8.15;5.95;;;22.60;99.90;;;;;;5066501;28;20108;-76
2022/06/27 11:12:00;;;;;;;7.38;5.25;;;22.60;99.90;;;;;;5057995;28;20052;-76
2022/06/27 11:14:26;;;;;;;7.20;4.97;;;22.50;99.90;;;;;;5066103;28;20421;-76
2022/06/27 11:16:52;;;;;;;12.82;7.10;;;22.60;99.90;;;;;;5042074;28;20029;-75
2022/06/27 11:22:21;;;;;;;10.55;6.28;;;22.50;99.90;;;;;;5056423;28;20559;-75
2022/06/27 11:24:50;;;;;;;13.15;9.38;;;22.40;99.90;;;;;;5068544;28;20032;-76
2022/06/27 11:27:16;;;;;;;9.93;5.88;;;22.10;99.90;;;;;;5051551;28;20518;-76
2022/06/27 11:32:42;;;;;;;9.95;6.18;;;22.00;99.90;;;;;;5073790;28;20031;-76
2022/06/27 11:35:08;;;;;;;10.10;6.10;;;22.20;99.90;;;;;;5068334;28;20720;-75
2022/06/27 11:37:34;;;;;;;8.18;5.57;;;22.20;99.90;;;;;;5045732;28;20461;-76
2022/06/27 11:40:03;;;;;;;12.85;6.25;;;22.20;99.90;;;;;;5062555;28;20021;-76
2022/06/27 11:42:30;;;;;;;10.20;4.93;;;22.30;99.90;;;;;;5060521;28;20430;-75
2022/06/27 11:45:09;;;;;;;9.73;6.03;;;22.30;99.90;;;;;;5063591;28;20029;-76
2022/06/27 11:47:40;;;;;;;9.65;5.15;;;22.30;99.90;;;;;;5065149;28;20492;-76
2022/06/27 11:50:14;;;;;;;4.93;4.45;;;22.30;99.90;;;;;;5063719;28;20388;-76
2022/06/27 11:52:42;;;;;;;8.68;4.75;;;22.40;99.90;;;;;;5054226;28;20493;-76
2022/06/27 11:55:09;;;;;;;9.35;6.10;;;22.40;99.90;;;;;;5055905;28;20056;-75
2022/06/27 11:57:35;;;;;;;8.48;6.38;;;22.30;99.90;;;;;;5055074;28;20033;-75
2022/06/27 12:00:04;;;;;;;7.03;5.68;;;22.40;99.90;;;;;;5062706;28;20058;-76
2022/06/27 12:02:35;;;;;;;7.47;5.63;;;22.40;99.90;;;;;;5038944;28;20444;-77
2022/06/27 12:05:13;;;;;;;4.70;4.30;;;22.50;99.90;;;;;;5066799;28;20020;-75
2022/06/27 12:07:59;;;;;;;7.93;5.47;;;22.60;99.90;;;;;;5057786;28;20117;-75
2022/06/27 12:10:37;;;;;;;10.52;5.15;;;22.60;99.90;;;;;;5056645;28;20156;-76
2022/06/27 12:13:04;;;;;;;6.75;4.90;;;22.60;99.90;;;;;;5047749;28;20025;-76
2022/06/27 12:15:30;;;;;;;10.45;5.65;;;22.40;99.90;;;;;;5052651;28;20025;-75
2022/06/27 12:17:57;;;;;;;5.70;4.70;;;22.40;99.90;;;;;;5058167;28;20016;-75
2022/06/27 12:20:24;;;;;;;8.88;4.80;;;22.40;99.90;;;;;;5065098;28;20024;-74
2022/06/27 12:22:50;;;;;;;8.55;5.30;;;22.40;99.90;;;;;;5053132;28;20025;-75
2022/06/27 12:25:17;;;;;;;7.50;4.78;;;22.40;99.90;;;;;;5061234;28;20073;-76
2022/06/27 12:27:43;;;;;;;4.68;4.00;;;22.20;99.90;;;;;;5066988;28;20080;-76
2022/06/27 12:30:11;;;;;;;6.50;3.78;;;22.30;99.90;;;;;;5060139;28;20461;-76
2022/06/27 12:32:37;;;;;;;5.55;3.35;;;22.20;99.90;;;;;;5051353;28;20678;-76
2022/06/27 12:35:03;;;;;;;9.85;4.28;;;22.10;99.90;;;;;;5049279;28;20017;-76
2022/06/27 12:37:29;;;;;;;7.18;3.83;;;22.10;99.90;;;;;;5048946;28;20091;-76
2022/06/27 12:39:54;;;;;;;10.38;4.00;;;22.00;99.90;;;;;;5049985;28;20470;-73
2022/06/27 12:42:20;;;;;;;8.75;4.53;;;22.10;99.90;;;;;;5048420;28;20026;-81
2022/06/27 12:44:46;;;;;;;15.25;9.38;;;22.10;99.90;;;;;;5047458;28;20379;-81
2022/06/27 12:47:11;;;;;;;14.43;7.25;;;21.70;99.90;;;;;;5051851;28;20504;-85